createdAt,value
2022-09-12T00:00:06.928Z,5.40
2022-09-12T00:03:17.929Z,5.38
2022-09-12T00:06:09.655Z,5.25
2022-09-12T00:08:57.806Z,6.00
2022-09-12T00:11:46.497Z,6.18
2022-09-12T00:14:32.411Z,5.78
2022-09-12T00:17:53.412Z,6.10
2022-09-12T00:20:47.209Z,6.10
2022-09-12T00:23:33.516Z,6.00
2022-09-12T00:26:20.584Z,6.53
2022-09-12T00:30:11.716Z,6.15
2022-09-12T00:32:57.582Z,6.82
2022-09-12T00:35:54.961Z,6.38
2022-09-12T00:38:51.192Z,7.50
2022-09-12T00:41:59.099Z,6.55
2022-09-12T00:44:48.248Z,6.45
2022-09-12T00:47:36.349Z,6.40
2022-09-12T00:50:26.789Z,6.80
2022-09-12T00:53:12.647Z,6.70
2022-09-12T00:55:58.970Z,6.97
2022-09-12T00:59:00.909Z,7.40
2022-09-12T01:01:49.024Z,7.13
2022-09-12T01:04:37.547Z,6.80
2022-09-12T01:07:24.069Z,6.28
2022-09-12T01:10:10.844Z,6.53
2022-09-12T01:12:57.547Z,6.93
2022-09-12T01:15:43.305Z,7.35
2022-09-12T01:19:12.747Z,6.88
2022-09-12T01:22:48.318Z,7.03
2022-09-12T01:26:18.404Z,7.60
2022-09-12T01:29:34.201Z,6.57
2022-09-12T01:32:43.089Z,7.10
2022-09-12T01:36:08.813Z,6.70
2022-09-12T01:39:34.429Z,7.32
2022-09-12T01:43:12.593Z,7.80
2022-09-12T01:47:11.182Z,7.30
2022-09-12T01:50:07.558Z,8.13
2022-09-12T01:52:58.889Z,8.30
2022-09-12T01:56:06.580Z,8.07
2022-09-12T01:59:06.911Z,8.18
2022-09-12T02:02:06.275Z,8.50
2022-09-12T02:05:17.216Z,8.57
2022-09-12T02:08:06.155Z,8.80
2022-09-12T02:11:02.146Z,8.20
2022-09-12T02:14:07.225Z,8.38
2022-09-12T02:16:57.205Z,8.68
2022-09-12T02:20:08.374Z,8.57
2022-09-12T02:22:56.259Z,8.80
2022-09-12T02:25:43.580Z,9.13
2022-09-12T02:28:33.073Z,8.77
2022-09-12T02:31:36.044Z,7.80
2022-09-12T02:34:35.211Z,8.88
2022-09-12T02:37:25.992Z,8.40
2022-09-12T02:40:12.776Z,8.63
2022-09-12T02:42:58.952Z,8.20
2022-09-12T02:45:45.171Z,8.73
2022-09-12T02:48:34.729Z,9.05
2022-09-12T02:51:23.659Z,8.70
2022-09-12T02:54:10.446Z,8.98
2022-09-12T02:56:56.628Z,9.45
2022-09-12T02:59:42.764Z,8.63
2022-09-12T03:03:03.019Z,8.65
2022-09-12T03:06:03.004Z,9.20
2022-09-12T03:09:27.157Z,9.82
2022-09-12T03:12:24.234Z,10.02
2022-09-12T03:15:19.544Z,9.82
2022-09-12T03:18:31.903Z,9.95
2022-09-12T03:21:42.610Z,10.13
2022-09-12T03:24:38.077Z,9.85
2022-09-12T03:27:36.838Z,10.10
2022-09-12T03:30:22.883Z,10.55
2022-09-12T03:33:13.700Z,10.10
2022-09-12T03:35:59.818Z,10.05
2022-09-12T03:38:45.935Z,9.68
2022-09-12T03:41:31.810Z,10.73
2022-09-12T03:44:18.293Z,10.90
2022-09-12T03:47:06.965Z,11.23
2022-09-12T03:49:56.741Z,9.73
2022-09-12T03:52:42.680Z,10.43
2022-09-12T03:55:28.466Z,10.45
2022-09-12T03:58:14.320Z,10.75
2022-09-12T04:01:00.048Z,10.60
2022-09-12T04:03:48.196Z,10.50
2022-09-12T04:06:33.894Z,10.80
2022-09-12T04:09:19.643Z,10.40
2022-09-12T04:12:05.916Z,10.13
2022-09-12T04:14:51.462Z,11.05
2022-09-12T04:17:37.282Z,9.25
2022-09-12T04:20:23.232Z,10.43
2022-09-12T04:23:09.296Z,9.40
2022-09-12T04:25:56.354Z,10.00
2022-09-12T04:28:43.323Z,9.65
2022-09-12T04:31:30.923Z,10.45
2022-09-12T04:34:16.845Z,10.15
2022-09-12T04:37:14.012Z,9.68
2022-09-12T04:40:03.744Z,9.57
2022-09-12T04:42:49.726Z,9.68
2022-09-12T04:45:39.167Z,9.48
2022-09-12T04:48:25.506Z,9.98
2022-09-12T04:51:18.161Z,9.50
2022-09-12T04:54:07.870Z,10.07
2022-09-12T04:56:55.360Z,9.60
2022-09-12T04:59:41.333Z,9.93
2022-09-12T05:02:30.117Z,9.95
2022-09-12T05:05:17.569Z,10.25
2022-09-12T05:08:03.701Z,10.00
2022-09-12T05:10:49.552Z,9.45
2022-09-12T05:13:35.509Z,9.25
2022-09-12T05:16:22.034Z,9.63
2022-09-12T05:19:09.712Z,9.85
2022-09-12T05:21:56.302Z,9.38
2022-09-12T05:24:47.245Z,9.55
2022-09-12T05:27:36.029Z,10.38
2022-09-12T05:30:21.622Z,9.77
2022-09-12T05:33:07.205Z,8.60
2022-09-12T05:35:53.145Z,10.10
2022-09-12T05:38:39.408Z,9.65
2022-09-12T05:41:29.542Z,10.63
2022-09-12T05:44:15.581Z,9.43
2022-09-12T05:47:01.526Z,9.63
2022-09-12T05:49:49.127Z,9.32
2022-09-12T05:52:35.239Z,10.23
2022-09-12T05:55:21.296Z,11.05
2022-09-12T05:58:07.480Z,9.20
2022-09-12T06:00:53.295Z,9.60
2022-09-12T06:03:50.514Z,8.98
2022-09-12T06:06:41.876Z,8.40
2022-09-12T06:09:28.186Z,8.57
2022-09-12T06:12:14.219Z,9.68
2022-09-12T06:15:00.192Z,9.07
2022-09-12T06:17:50.786Z,8.52
2022-09-12T06:20:37.062Z,8.23
2022-09-12T06:23:23.189Z,8.63
2022-09-12T06:26:10.612Z,9.85
2022-09-12T06:28:58.442Z,7.93
2022-09-12T06:31:44.463Z,8.45
2022-09-12T06:34:31.537Z,8.80
2022-09-12T06:37:17.610Z,9.15
2022-09-12T06:40:03.568Z,9.40
2022-09-12T06:42:49.666Z,8.63
2022-09-12T06:45:51.232Z,8.73
2022-09-12T06:48:41.578Z,8.55
2022-09-12T06:51:29.120Z,8.50
2022-09-12T06:54:17.255Z,7.68
2022-09-12T06:57:03.526Z,8.13
2022-09-12T06:59:49.327Z,7.18
2022-09-12T07:02:34.943Z,6.65
2022-09-12T07:05:20.615Z,7.45
2022-09-12T07:08:06.374Z,7.47
2022-09-12T07:10:52.120Z,7.43
2022-09-12T07:13:39.514Z,7.55
2022-09-12T07:16:25.780Z,8.02
2022-09-12T07:19:12.201Z,6.90
2022-09-12T07:21:58.808Z,7.82
2022-09-12T07:24:45.877Z,7.65
2022-09-12T07:27:31.450Z,7.55
2022-09-12T07:30:17.834Z,7.10
2022-09-12T07:33:03.878Z,6.70
2022-09-12T07:35:49.883Z,7.03
2022-09-12T07:38:35.906Z,7.03
2022-09-12T07:41:29.576Z,6.90
2022-09-12T07:44:15.521Z,7.30
2022-09-12T07:47:02.027Z,7.57
2022-09-12T07:49:48.629Z,7.35
2022-09-12T07:52:34.434Z,7.45
2022-09-12T07:55:20.338Z,6.95
2022-09-12T07:58:06.489Z,6.93
2022-09-12T08:00:52.405Z,7.25
2022-09-12T08:03:39.198Z,7.50
2022-09-12T08:06:26.758Z,7.25
2022-09-12T08:09:13.052Z,7.40
2022-09-12T08:11:59.013Z,7.10
2022-09-12T08:14:44.811Z,28.77
2022-09-12T08:17:30.585Z,29.60
2022-09-12T08:20:18.079Z,28.80
2022-09-12T08:23:03.870Z,15.30
2022-09-12T08:25:50.202Z,22.05
2022-09-12T08:28:36.726Z,63.63
2022-09-12T08:31:24.646Z,10.30
2022-09-12T08:34:10.754Z,7.28
2022-09-12T08:36:56.728Z,7.38
2022-09-12T08:39:42.480Z,6.85
2022-09-12T08:43:14.647Z,5.43
2022-09-12T08:46:40.074Z,4.28
2022-09-12T08:49:31.110Z,5.25
2022-09-12T08:52:24.281Z,4.38
2022-09-12T08:55:22.406Z,3.80
2022-09-12T08:58:22.737Z,5.07
2022-09-12T09:01:11.890Z,3.42
2022-09-12T09:04:34.484Z,4.38
2022-09-12T09:07:38.694Z,3.00
2022-09-12T09:10:27.336Z,2.90
2022-09-12T09:13:44.207Z,11.48
2022-09-12T09:16:31.537Z,2.80
2022-09-12T09:19:25.742Z,3.15
2022-09-12T09:22:33.844Z,2.10
2022-09-12T09:25:23.943Z,2.78
2022-09-12T09:28:37.820Z,2.13
2022-09-12T09:31:25.917Z,1.70
2022-09-12T09:34:34.307Z,1.70
2022-09-12T09:37:36.538Z,1.65
2022-09-12T09:40:58.293Z,1.35
2022-09-12T09:43:44.164Z,1.67
2022-09-12T09:46:30.426Z,1.85
2022-09-12T09:49:17.765Z,1.60
2022-09-12T09:52:06.593Z,1.70
2022-09-12T09:54:57.490Z,2.13
2022-09-12T09:57:46.642Z,1.60
2022-09-12T10:00:37.177Z,1.52
2022-09-12T10:03:29.025Z,1.92
2022-09-12T10:06:20.979Z,1.45
2022-09-12T10:09:18.840Z,1.40
2022-09-12T10:12:30.618Z,1.40
2022-09-12T10:15:21.035Z,1.58
2022-09-12T10:18:07.256Z,1.30
2022-09-12T10:20:53.463Z,18.30
2022-09-12T10:23:41.260Z,1.80
2022-09-12T10:26:33.062Z,1.95
2022-09-12T10:29:31.688Z,2.70
2022-09-12T10:32:31.298Z,1.75
2022-09-12T10:35:21.515Z,1.50
2022-09-12T10:38:22.630Z,1.70
2022-09-12T10:41:10.414Z,1.70
2022-09-12T10:44:07.683Z,1.90
2022-09-12T10:46:54.595Z,1.70
2022-09-12T10:49:41.419Z,1.80
2022-09-12T10:52:28.560Z,2.00
2022-09-12T10:55:15.805Z,1.90
2022-09-12T10:58:14.589Z,1.90
2022-09-12T11:01:25.576Z,2.38
2022-09-12T11:04:14.182Z,1.80
2022-09-12T11:07:15.147Z,2.05
2022-09-12T11:10:03.916Z,28.10
2022-09-12T11:13:14.773Z,4.82
2022-09-12T11:16:14.309Z,2.95
2022-09-12T11:19:41.667Z,2.03
2022-09-12T11:22:43.754Z,1.40
2022-09-12T11:25:43.417Z,1.92
2022-09-12T11:28:48.040Z,1.52
2022-09-12T11:31:40.154Z,1.92
2022-09-12T11:34:33.455Z,1.70
2022-09-12T11:37:43.907Z,1.60
2022-09-12T11:40:40.895Z,1.70
2022-09-12T11:43:35.489Z,1.83
2022-09-12T11:46:22.961Z,2.67
2022-09-12T11:49:15.712Z,2.28
2022-09-12T11:52:11.350Z,1.70
2022-09-12T11:55:18.907Z,1.98
2022-09-12T11:58:05.279Z,1.83
2022-09-12T12:00:55.176Z,1.95
2022-09-12T12:03:46.805Z,1.65
2022-09-12T12:06:41.068Z,1.90
2022-09-12T12:09:27.059Z,1.40
2022-09-12T12:12:17.706Z,1.50
2022-09-12T12:15:03.929Z,1.65
2022-09-12T12:18:04.684Z,1.88
2022-09-12T12:20:51.410Z,1.58
2022-09-12T12:23:37.649Z,4.18
2022-09-12T12:26:47.489Z,2.70
2022-09-12T12:29:44.634Z,2.30
2022-09-12T12:32:30.626Z,2.10
2022-09-12T12:35:54.191Z,2.70
2022-09-12T12:38:44.512Z,2.10
2022-09-12T12:41:36.763Z,1.70
2022-09-12T12:44:44.328Z,2.20
2022-09-12T12:47:36.117Z,1.50
2022-09-12T12:50:27.289Z,1.60
2022-09-12T12:53:17.609Z,2.00
2022-09-12T12:56:03.643Z,1.50
2022-09-12T12:58:49.391Z,2.03
2022-09-12T13:01:41.363Z,4.20
2022-09-12T13:04:29.708Z,2.75
2022-09-12T13:07:26.106Z,2.20
2022-09-12T13:10:23.585Z,1.70
2022-09-12T13:13:09.850Z,1.33
2022-09-12T13:15:55.683Z,1.50
2022-09-12T13:18:54.551Z,1.60
2022-09-12T13:22:03.394Z,1.50
2022-09-12T13:24:52.186Z,1.80
2022-09-12T13:27:38.362Z,1.70
2022-09-12T13:30:24.297Z,1.85
2022-09-12T13:33:16.801Z,1.55
2022-09-12T13:39:21.451Z,2.20
2022-09-12T13:42:22.564Z,1.85
2022-09-12T13:45:27.570Z,2.42
2022-09-12T13:48:24.327Z,1.80
2022-09-12T13:51:21.977Z,43.53
2022-09-12T13:54:07.876Z,50.72
2022-09-12T13:56:53.928Z,18.73
2022-09-12T13:59:41.046Z,23.23
2022-09-12T14:02:29.186Z,7.60
2022-09-12T14:05:24.255Z,10.05
2022-09-12T14:08:12.068Z,6.00
2022-09-12T14:10:58.391Z,3.40
2022-09-12T14:13:44.220Z,3.63
2022-09-12T14:16:31.380Z,3.53
2022-09-12T14:19:18.610Z,2.70
2022-09-12T14:22:04.610Z,2.67
2022-09-12T14:24:51.661Z,2.85
2022-09-12T14:27:48.042Z,3.00
2022-09-12T14:30:37.599Z,3.20
2022-09-12T14:33:23.694Z,3.13
2022-09-12T14:36:12.695Z,3.13
2022-09-12T14:39:06.491Z,3.28
2022-09-12T14:42:02.144Z,3.10
2022-09-12T14:45:00.477Z,2.50
2022-09-12T14:47:49.972Z,2.53
2022-09-12T14:50:36.237Z,2.28
2022-09-12T14:53:32.593Z,2.40
2022-09-12T14:56:22.303Z,2.40
2022-09-12T14:59:26.888Z,2.78
2022-09-12T15:02:21.954Z,3.08
2022-09-12T15:05:07.776Z,2.25
2022-09-12T15:08:01.065Z,2.00
2022-09-12T15:10:47.135Z,2.20
2022-09-12T15:13:39.815Z,2.40
2022-09-12T15:16:26.050Z,3.00
2022-09-12T15:19:12.194Z,2.28
2022-09-12T15:21:58.101Z,2.22
2022-09-12T15:24:44.956Z,2.40
2022-09-12T15:27:31.179Z,2.28
2022-09-12T15:30:17.189Z,2.90
2022-09-12T15:33:03.207Z,2.47
2022-09-12T15:35:49.021Z,2.67
2022-09-12T15:38:34.988Z,2.50
2022-09-12T15:41:23.574Z,2.65
2022-09-12T15:44:13.319Z,2.47
2022-09-12T15:46:59.298Z,2.40
2022-09-12T15:49:46.259Z,2.60
2022-09-12T15:52:32.144Z,3.15
2022-09-12T15:55:19.831Z,2.90
2022-09-12T15:58:07.324Z,2.50
2022-09-12T16:00:53.637Z,2.67
2022-09-12T16:03:39.755Z,2.80
2022-09-12T16:06:25.804Z,2.40
2022-09-12T16:09:16.567Z,2.40
2022-09-12T16:12:02.851Z,2.80
2022-09-12T16:14:48.773Z,2.60
2022-09-12T16:17:34.866Z,2.28
2022-09-12T16:20:22.220Z,3.10
2022-09-12T16:23:13.352Z,2.20
2022-09-12T16:26:05.026Z,3.05
2022-09-12T16:28:58.405Z,2.40
2022-09-12T16:31:45.459Z,2.80
2022-09-12T16:34:31.441Z,3.25
2022-09-12T16:37:18.127Z,2.80
2022-09-12T16:40:05.393Z,3.35
2022-09-12T16:42:51.168Z,3.00
2022-09-12T16:45:37.004Z,2.70
2022-09-12T16:48:22.746Z,3.35
2022-09-12T16:51:08.518Z,3.13
2022-09-12T16:53:55.515Z,2.83
2022-09-12T16:56:42.517Z,3.08
2022-09-12T16:59:28.298Z,15.27
2022-09-12T17:02:14.179Z,37.00
2022-09-12T17:05:00.243Z,33.30
2022-09-12T17:07:46.175Z,78.68
2022-09-12T17:10:32.763Z,52.58
2022-09-12T17:13:18.641Z,37.67
2022-09-12T17:16:11.697Z,16.05
2022-09-12T17:18:58.712Z,9.07
2022-09-12T17:21:47.133Z,10.30
2022-09-12T17:24:33.173Z,7.35
2022-09-12T17:27:19.323Z,9.32
2022-09-12T17:30:05.756Z,8.18
2022-09-12T17:32:52.433Z,6.30
2022-09-12T17:35:38.945Z,7.75
2022-09-12T17:38:25.411Z,7.22
2022-09-12T17:41:17.847Z,7.90
2022-09-12T17:44:07.394Z,7.07
2022-09-12T17:46:53.191Z,6.70
2022-09-12T17:49:40.660Z,7.32
2022-09-12T17:52:27.622Z,6.97
2022-09-12T17:55:15.208Z,8.68
2022-09-12T17:58:01.050Z,7.95
2022-09-12T18:01:05.824Z,6.07
2022-09-12T18:03:56.744Z,7.30
2022-09-12T18:06:48.160Z,6.07
2022-09-12T18:09:34.445Z,5.00
2022-09-12T18:12:20.483Z,6.18
2022-09-12T18:15:07.168Z,6.57
2022-09-12T18:17:53.884Z,6.00
2022-09-12T18:20:40.105Z,5.28
2022-09-12T18:23:27.040Z,5.40
2022-09-12T18:26:13.570Z,5.55
2022-09-12T18:28:59.713Z,5.63
2022-09-12T18:31:49.618Z,5.00
2022-09-12T18:34:35.777Z,4.60
2022-09-12T18:37:22.076Z,5.95
2022-09-12T18:40:09.263Z,4.25
2022-09-12T18:42:55.525Z,4.70
2022-09-12T18:45:41.293Z,5.00
2022-09-12T18:48:27.387Z,4.50
2022-09-12T18:51:17.973Z,5.82
2022-09-12T18:54:06.666Z,5.30
2022-09-12T18:56:52.742Z,5.15
2022-09-12T18:59:38.749Z,5.03
2022-09-12T19:02:28.111Z,4.50
2022-09-12T19:05:13.946Z,4.38
2022-09-12T19:08:00.047Z,7.05
2022-09-12T19:10:45.973Z,4.88
2022-09-12T19:13:32.205Z,4.40
2022-09-12T19:16:20.657Z,4.20
2022-09-12T19:19:06.808Z,4.35
2022-09-12T19:21:52.802Z,4.68
2022-09-12T19:24:38.841Z,5.43
2022-09-12T19:27:24.621Z,4.63
2022-09-12T19:30:11.005Z,5.25
2022-09-12T19:32:57.232Z,4.72
2022-09-12T19:35:43.257Z,4.82
2022-09-12T19:38:29.336Z,5.18
2022-09-12T19:41:15.399Z,5.10
2022-09-12T19:44:01.551Z,4.47
2022-09-12T19:46:47.911Z,4.18
2022-09-12T19:49:34.014Z,4.78
2022-09-12T19:52:19.896Z,5.28
2022-09-12T19:55:06.422Z,5.28
2022-09-12T19:57:52.688Z,4.90
2022-09-12T20:00:38.923Z,4.50
2022-09-12T20:03:25.087Z,3.83
2022-09-12T20:06:17.356Z,3.70
2022-09-12T20:09:03.527Z,4.13
2022-09-12T20:11:49.830Z,3.80
2022-09-12T20:14:35.949Z,4.30
2022-09-12T20:17:22.193Z,5.03
2022-09-12T20:20:11.357Z,3.80
2022-09-12T20:22:57.531Z,4.20
2022-09-12T20:25:43.424Z,3.95
2022-09-12T20:28:29.590Z,3.88
2022-09-12T20:31:16.626Z,3.95
2022-09-12T20:34:03.459Z,4.22
2022-09-12T20:36:49.496Z,4.57
2022-09-12T20:39:35.691Z,3.97
2022-09-12T20:42:21.685Z,5.35
2022-09-12T20:45:07.790Z,4.50
2022-09-12T20:47:53.659Z,3.92
2022-09-12T20:50:39.566Z,3.90
2022-09-12T20:53:25.613Z,4.10
2022-09-12T20:56:12.663Z,4.10
2022-09-12T20:58:59.382Z,4.07
2022-09-12T21:01:45.424Z,4.03
2022-09-12T21:04:31.574Z,3.78
2022-09-12T21:07:17.499Z,3.47
2022-09-12T21:10:03.885Z,4.15
2022-09-12T21:12:49.796Z,3.92
2022-09-12T21:15:37.134Z,3.95
2022-09-12T21:18:23.752Z,3.88
2022-09-12T21:21:14.204Z,3.67
2022-09-12T21:24:02.761Z,3.35
2022-09-12T21:26:51.096Z,3.67
2022-09-12T21:29:37.134Z,3.85
2022-09-12T21:32:23.152Z,3.60
2022-09-12T21:35:09.292Z,3.63
2022-09-12T21:37:55.427Z,4.20
2022-09-12T21:40:45.360Z,3.40
2022-09-12T21:43:31.164Z,4.50
2022-09-12T21:46:16.964Z,5.20
2022-09-12T21:49:03.355Z,4.95
2022-09-12T21:51:51.009Z,4.43
2022-09-12T21:54:37.048Z,4.47
2022-09-12T21:57:22.863Z,4.43
2022-09-12T22:00:14.122Z,3.83
2022-09-12T22:03:00.181Z,3.72
2022-09-12T22:05:51.346Z,3.83
2022-09-12T22:08:38.841Z,3.45
2022-09-12T22:11:24.644Z,3.58
2022-09-12T22:14:11.185Z,4.40
2022-09-12T22:16:57.323Z,4.05
2022-09-12T22:19:43.067Z,4.05
2022-09-12T22:22:47.474Z,4.10
2022-09-12T22:25:33.654Z,3.30
2022-09-12T22:28:19.772Z,3.88
2022-09-12T22:31:06.977Z,3.55
2022-09-12T22:33:57.262Z,4.18
2022-09-12T22:36:43.210Z,3.60
2022-09-12T22:39:29.123Z,3.60
2022-09-12T22:42:15.367Z,2.78
2022-09-12T22:45:01.883Z,3.40
2022-09-12T22:47:48.069Z,3.25
2022-09-12T22:50:34.284Z,4.05
2022-09-12T22:53:20.167Z,3.13
2022-09-12T22:56:07.098Z,2.78
2022-09-12T22:58:53.146Z,3.10
2022-09-12T23:01:38.859Z,2.90
2022-09-12T23:04:24.695Z,2.63
2022-09-12T23:07:11.112Z,2.95
2022-09-12T23:09:57.004Z,2.75
2022-09-12T23:12:42.778Z,2.78
2022-09-12T23:15:28.538Z,3.20
2022-09-12T23:18:14.262Z,2.90
2022-09-12T23:21:04.500Z,3.10
2022-09-12T23:23:50.832Z,2.83
2022-09-12T23:26:37.023Z,3.22
2022-09-12T23:29:22.787Z,2.67
2022-09-12T23:32:08.732Z,2.50
2022-09-12T23:34:54.665Z,2.28
2022-09-12T23:37:40.433Z,2.50
2022-09-12T23:40:26.345Z,2.28
2022-09-12T23:43:12.370Z,2.45
2022-09-12T23:45:59.108Z,2.33
2022-09-12T23:48:45.235Z,2.55
2022-09-12T23:51:31.460Z,2.30
2022-09-12T23:54:17.201Z,2.08
2022-09-12T23:57:02.985Z,2.25
2022-09-12T23:59:48.726Z,2.45
